Time;durP1;ratioP1;P1;durP2;ratioP2;P2;SDS_P1;SDS_P2;PMS_P1;PMS_P2;Temp;Humidity;BMP_temperature;BMP_pressure;BME280_temperature;BME280_humidity;BME280_pressure;Samples;Min_cycle;Max_cycle;Signal;HPM_P1;HPM_P2
2022/09/12 00:00:49;;;;;;;5.80;2.90;;;;;;;10.72;84.81;100294.86;1748526;81;25837;-77
2022/09/12 00:03:18;;;;;;;7.72;3.17;;;;;;;10.65;84.88;100288.11;1740667;81;25915;-77
2022/09/12 00:05:46;;;;;;;6.75;3.55;;;;;;;10.65;85.09;100288.62;1746594;81;26484;-77
2022/09/12 00:08:13;;;;;;;14.50;3.72;;;;;;;10.67;85.19;100282.59;1730295;81;27436;-77
2022/09/12 00:10:42;;;;;;;5.62;3.08;;;;;;;10.66;85.27;100283.09;1755784;80;25871;-77
2022/09/12 00:13:09;;;;;;;5.95;3.20;;;;;;;10.67;85.22;100281.25;1755176;80;25971;-77
2022/09/12 00:15:41;;;;;;;4.08;3.58;;;;;;;10.69;85.27;100288.04;1768065;79;25782;-77
2022/09/12 00:18:15;;;;;;;5.53;3.40;;;;;;;10.69;85.25;100285.89;1765142;80;25747;-78
2022/09/12 00:20:45;;;;;;;4.62;3.35;;;;;;;10.68;85.41;100280.20;1768640;79;27560;-78
2022/09/12 00:23:13;;;;;;;6.62;3.10;;;;;;;10.66;85.54;100279.07;1769960;79;25267;-77
2022/09/12 00:25:44;;;;;;;10.45;3.30;;;;;;;10.66;85.62;100275.05;1772995;79;25834;-77
2022/09/12 00:28:11;;;;;;;7.05;3.47;;;;;;;10.62;85.78;100280.98;1771525;79;25875;-77
2022/09/12 00:30:47;;;;;;;4.83;3.22;;;;;;;10.59;85.94;100272.83;1771677;79;25679;-77
2022/09/12 00:33:16;;;;;;;8.70;3.17;;;;;;;10.58;86.18;100277.89;1766749;79;27519;-78
2022/09/12 00:35:47;;;;;;;5.53;3.30;;;;;;;10.59;86.25;100280.03;1768171;79;25839;-78
2022/09/12 00:38:16;;;;;;;6.97;3.22;;;;;;;10.58;86.28;100272.53;1767494;80;26004;-77
2022/09/12 00:40:43;;;;;;;6.37;3.37;;;;;;;10.56;86.47;100276.42;1770703;79;25770;-78
2022/09/12 00:43:35;;;;;;;6.17;3.70;;;;;;;10.56;86.65;100273.73;1738079;81;25827;-77
2022/09/12 00:46:16;;;;;;;8.03;3.10;;;;;;;10.53;86.70;100277.63;1736800;81;27464;-78
2022/09/12 00:48:50;;;;;;;5.10;3.40;;;;;;;10.49;86.89;100271.01;1767168;79;34217;-78
2022/09/12 00:51:18;;;;;;;7.42;4.22;;;;;;;10.49;86.92;100272.85;1775788;79;25846;-78
2022/09/12 00:53:47;;;;;;;6.08;4.03;;;;;;;10.49;86.97;100269.67;1771528;79;26494;-78
2022/09/12 00:56:16;;;;;;;5.80;3.22;;;;;;;10.49;87.07;100272.85;1767783;79;26554;-78
2022/09/12 00:59:03;;;;;;;8.25;3.83;;;;;;;10.48;87.15;100272.52;1745217;81;28776;-78
2022/09/12 01:01:30;;;;;;;6.08;3.47;;;;;;;10.47;87.17;100269.54;1735210;81;25842;-78
2022/09/12 01:03:56;;;;;;;8.10;3.37;;;;;;;10.46;87.24;100275.40;1751421;81;25251;-78
2022/09/12 01:06:27;;;;;;;5.67;3.30;;;;;;;10.44;87.36;100273.93;1768787;80;25765;-78
2022/09/12 01:08:54;;;;;;;6.05;3.80;;;;;;;10.42;87.49;100273.30;1771410;80;25890;-77
2022/09/12 01:11:21;;;;;;;8.28;3.37;;;;;;;10.39;87.59;100275.84;1769918;79;27454;-78
2022/09/12 01:13:49;;;;;;;5.35;3.27;;;;;;;10.39;87.69;100276.38;1759714;80;26516;-78
2022/09/12 01:16:16;;;;;;;7.67;3.83;;;;;;;10.40;87.75;100278.02;1764775;80;25818;-78
2022/09/12 01:19:17;;;;;;;6.97;3.77;;;;;;;10.41;87.77;100279.19;1766119;79;25878;-78
2022/09/12 01:22:04;;;;;;;7.03;4.15;;;;;;;10.41;87.79;100277.02;1746869;81;25835;-77
2022/09/12 01:25:11;;;;;;;7.37;3.92;;;;;;;10.37;87.95;100283.24;1757864;80;27425;-77
2022/09/12 01:28:01;;;;;;;9.53;4.12;;;;;;;10.35;88.11;100291.17;1745045;81;26352;-77
2022/09/12 01:30:59;;;;;;;5.65;3.33;;;;;;;10.33;88.22;100282.52;1755499;81;25817;-78
2022/09/12 01:33:46;;;;;;;7.12;3.77;;;;;;;10.32;88.31;100284.35;1753344;81;25767;-77
2022/09/12 01:36:38;;;;;;;4.87;3.65;;;;;;;10.32;88.43;100288.88;1749568;81;26431;-77
2022/09/12 01:39:22;;;;;;;5.78;3.77;;;;;;;10.33;88.47;100287.87;1752698;81;27540;-77
2022/09/12 01:42:08;;;;;;;12.13;4.58;;;;;;;10.33;88.51;100291.88;1745829;81;25743;-78
2022/09/12 01:45:03;;;;;;;6.40;4.20;;;;;;;10.30;88.51;100289.58;1746278;81;25912;-77
2022/09/12 01:47:40;;;;;;;4.40;3.52;;;;;;;10.29;88.62;100287.41;1747889;81;25786;-78
2022/09/12 01:50:24;;;;;;;5.70;3.87;;;;;;;10.30;88.57;100293.59;1757655;81;25765;-77
2022/09/12 01:52:58;;;;;;;7.40;4.10;;;;;;;10.30;88.63;100286.90;1761690;81;28418;-78
2022/09/12 01:55:35;;;;;;;7.03;3.72;;;;;;;10.28;88.75;100289.78;1752749;81;25811;-77
2022/09/12 01:58:09;;;;;;;6.33;4.20;;;;;;;10.30;88.77;100292.25;1749597;81;25769;-78
2022/09/12 02:00:41;;;;;;;7.80;3.62;;;;;;;10.28;88.74;100287.10;1743649;81;26144;-77
2022/09/12 02:03:18;;;;;;;5.90;3.60;;;;;;;10.27;88.72;100293.97;1745224;81;25921;-77
2022/09/12 02:06:08;;;;;;;7.17;3.95;;;;;;;10.27;88.71;100289.95;1749606;81;27445;-78
2022/09/12 02:08:42;;;;;;;5.62;3.52;;;;;;;10.27;88.76;100292.62;1759526;81;25803;-77
2022/09/12 02:11:11;;;;;;;5.80;4.83;;;;;;;10.26;88.73;100286.97;1743076;81;25870;-77
2022/09/12 02:13:52;;;;;;;4.60;3.67;;;;;;;10.25;88.68;100295.50;1755330;81;25798;-77
2022/09/12 02:16:27;;;;;;;6.28;4.17;;;;;;;10.25;88.70;100298.18;1756094;81;25794;-77
2022/09/12 02:18:58;;;;;;;7.35;3.67;;;;;;;10.27;88.77;100302.00;1776574;79;28283;-77
2022/09/12 02:21:31;;;;;;;4.85;3.60;;;;;;;10.28;88.81;100300.48;1750455;81;25821;-77
2022/09/12 02:24:01;;;;;;;7.97;4.10;;;;;;;10.26;88.83;100296.34;1771219;80;25921;-78
2022/09/12 02:26:36;;;;;;;8.35;3.90;;;;;;;10.24;88.91;100299.22;1744152;81;25965;-77
2022/09/12 02:29:03;;;;;;;7.58;4.00;;;;;;;10.23;88.87;100302.06;1738702;81;25929;-77
2022/09/12 02:31:53;;;;;;;4.75;3.83;;;;;;;10.23;88.93;100300.22;1746615;81;27460;-77
2022/09/12 02:34:43;;;;;;;7.53;3.90;;;;;;;10.22;89.00;100305.27;1746414;81;26098;-77
2022/09/12 02:37:26;;;;;;;8.00;3.30;;;;;;;10.23;89.07;100298.88;1772194;79;26091;-77
2022/09/12 02:39:56;;;;;;;8.05;3.90;;;;;;;10.27;89.19;100303.33;1762036;80;25744;-77
2022/09/12 02:42:23;;;;;;;7.92;3.80;;;;;;;10.24;89.23;100308.59;1773020;79;26098;-77
2022/09/12 02:44:53;;;;;;;7.15;3.85;;;;;;;10.23;89.25;100300.72;1766192;79;27512;-77
2022/09/12 02:47:25;;;;;;;6.27;3.83;;;;;;;10.26;89.35;100309.72;1742081;81;25701;-77
2022/09/12 02:49:53;;;;;;;10.00;4.42;;;;;;;10.26;89.42;100305.20;1745941;81;25780;-78
2022/09/12 02:52:20;;;;;;;5.10;4.22;;;;;;;10.27;89.45;100308.19;1773583;80;25861;-77
2022/09/12 02:54:47;;;;;;;4.35;3.30;;;;;;;10.30;89.47;100313.17;1777850;79;25925;-78
2022/09/12 02:57:20;;;;;;;5.72;3.47;;;;;;;10.30;89.46;100312.33;1743213;81;27461;-77
2022/09/12 02:59:49;;;;;;;5.12;3.67;;;;;;;10.28;89.55;100315.21;1773762;80;25891;-77
2022/09/12 03:02:57;;;;;;;7.25;4.28;;;;;;;10.27;89.71;100309.52;1766840;79;25769;-77
2022/09/12 03:05:31;;;;;;;8.55;4.08;;;;;;;10.27;89.83;100314.87;1775905;80;25918;-77
2022/09/12 03:08:14;;;;;;;5.37;3.85;;;;;;;10.26;90.04;100315.91;1768961;79;25885;-77
2022/09/12 03:11:12;;;;;;;6.80;4.10;;;;;;;10.27;90.12;100315.37;1767527;80;27461;-77
2022/09/12 03:13:50;;;;;;;5.92;3.60;;;;;;;10.29;90.19;100315.52;1758276;80;25864;-77
2022/09/12 03:16:24;;;;;;;8.38;4.05;;;;;;;10.31;90.29;100321.50;1744672;80;26270;-78
2022/09/12 03:19:15;;;;;;;4.28;3.65;;;;;;;10.31;90.34;100321.50;1738564;81;25773;-78
2022/09/12 03:22:20;;;;;;;6.73;4.13;;;;;;;10.31;90.47;100322.84;1754337;81;25775;-77
2022/09/12 03:25:24;;;;;;;6.85;4.35;;;;;;;10.32;90.64;100321.00;1748093;81;27493;-77
2022/09/12 03:28:05;;;;;;;5.72;3.87;;;;;;;10.29;90.73;100321.37;1743835;81;26467;-77
2022/09/12 03:30:30;;;;;;;6.22;4.00;;;;;;;10.33;90.89;100332.05;1747402;81;25864;-77
2022/09/12 03:32:56;;;;;;;5.60;3.95;;;;;;;10.34;90.93;100335.02;1772266;80;26248;-77
2022/09/12 03:35:24;;;;;;;5.45;4.05;;;;;;;10.36;91.03;100332.98;1776128;80;26018;-77
2022/09/12 03:37:51;;;;;;;7.58;3.80;;;;;;;10.37;91.08;100340.81;1762321;79;27455;-77
2022/09/12 03:40:19;;;;;;;7.28;3.95;;;;;;;10.39;91.17;100336.63;1766825;80;25875;-77
2022/09/12 03:42:45;;;;;;;5.22;3.77;;;;;;;10.41;91.13;100342.61;1764737;79;25814;-77
2022/09/12 03:45:11;;;;;;;5.85;4.42;;;;;;;10.43;91.12;100347.27;1774310;80;25851;-78
2022/09/12 03:47:39;;;;;;;10.68;3.60;;;;;;;10.45;91.14;100341.20;1757703;80;26078;-77
2022/09/12 03:50:07;;;;;;;4.53;3.92;;;;;;;10.47;91.16;100342.67;1770157;79;28268;-77
2022/09/12 03:52:34;;;;;;;6.33;3.83;;;;;;;10.50;91.17;100342.27;1758940;79;25858;-77
2022/09/12 03:55:00;;;;;;;7.10;3.77;;;;;;;10.51;91.14;100344.45;1771692;80;25866;-77
2022/09/12 03:57:26;;;;;;;5.22;3.85;;;;;;;10.49;91.13;100346.49;1771391;80;26492;-77
2022/09/12 03:59:53;;;;;;;7.85;4.03;;;;;;;10.49;91.22;100345.98;1762090;80;26388;-78
2022/09/12 04:02:19;;;;;;;6.65;3.70;;;;;;;10.50;91.28;100348.97;1770205;80;27440;-77
2022/09/12 04:04:47;;;;;;;5.87;3.95;;;;;;;10.52;91.33;100354.16;1751187;81;25755;-77
2022/09/12 04:07:15;;;;;;;11.03;3.60;;;;;;;10.53;91.39;100354.45;1752990;81;26753;-78
2022/09/12 04:09:41;;;;;;;7.80;4.25;;;;;;;10.50;91.38;100347.62;1758243;81;25755;-78
2022/09/12 04:12:08;;;;;;;12.35;4.20;;;;;;;10.53;91.50;100349.09;1759553;81;26327;-77
2022/09/12 04:14:34;;;;;;;5.12;3.55;;;;;;;10.53;91.51;100356.63;1759018;81;27083;-77
2022/09/12 04:17:01;;;;;;;7.03;3.70;;;;;;;10.50;91.48;100347.62;1759402;80;25541;-77
2022/09/12 04:19:27;;;;;;;7.25;3.83;;;;;;;10.50;91.67;100352.18;1735387;81;25739;-77
2022/09/12 04:21:54;;;;;;;7.58;4.20;;;;;;;10.49;91.78;100347.83;1753002;81;26192;-77
2022/09/12 04:24:20;;;;;;;8.63;4.22;;;;;;;10.47;91.81;100353.39;1755316;81;25790;-77
2022/09/12 04:26:46;;;;;;;8.23;3.85;;;;;;;10.49;91.96;100353.19;1751559;81;27446;-78
2022/09/12 04:29:13;;;;;;;9.93;4.08;;;;;;;10.50;92.01;100350.84;1751127;81;26324;-78
2022/09/12 04:31:40;;;;;;;9.28;4.78;;;;;;;10.52;92.06;100350.14;1763118;80;25724;-77
2022/09/12 04:34:07;;;;;;;5.40;3.85;;;;;;;10.52;92.08;100346.92;1762141;80;26443;-77
2022/09/12 04:36:34;;;;;;;5.78;3.85;;;;;;;10.52;92.20;100357.64;1739020;81;26047;-78
2022/09/12 04:39:02;;;;;;;5.50;3.72;;;;;;;10.49;92.22;100351.34;1731232;82;28048;-77
2022/09/12 04:41:32;;;;;;;7.30;3.80;;;;;;;10.46;92.35;100357.07;1742026;81;26308;-77
2022/09/12 04:44:06;;;;;;;8.87;3.77;;;;;;;10.47;92.51;100361.92;1741808;81;26478;-77
2022/09/12 04:46:40;;;;;;;15.60;4.10;;;;;;;10.48;92.66;100363.56;1721388;81;26033;-78
2022/09/12 04:49:07;;;;;;;7.30;3.55;;;;;;;10.48;92.74;100364.40;1735053;82;25785;-77
2022/09/12 04:51:37;;;;;;;10.45;3.85;;;;;;;10.49;92.86;100365.23;1732168;80;27366;-77
2022/09/12 04:54:09;;;;;;;5.37;4.13;;;;;;;10.49;92.97;100366.58;1741317;80;25898;-77
2022/09/12 04:56:42;;;;;;;7.05;4.33;;;;;;;10.47;92.98;100369.45;1743156;81;26134;-78
2022/09/12 04:59:11;;;;;;;5.75;3.37;;;;;;;10.49;93.13;100363.90;1748272;80;26318;-78
2022/09/12 05:01:38;;;;;;;9.43;4.03;;;;;;;10.52;93.24;100362.99;1769752;79;25714;-77
2022/09/12 05:04:05;;;;;;;6.25;3.83;;;;;;;10.55;93.22;100363.13;1769340;79;27474;-77
2022/09/12 05:06:35;;;;;;;4.55;3.55;;;;;;;10.57;93.32;100361.92;1769744;79;26068;-78
2022/09/12 05:09:04;;;;;;;5.00;3.65;;;;;;;10.60;93.28;100366.91;1742571;80;26566;-78
2022/09/12 05:11:37;;;;;;;6.33;3.75;;;;;;;10.63;93.34;100368.34;1743536;81;25938;-77
2022/09/12 05:14:03;;;;;;;8.65;3.67;;;;;;;10.65;93.41;100371.66;1755301;80;26309;-77
2022/09/12 05:16:31;;;;;;;6.53;3.95;;;;;;;10.68;93.40;100374.80;1743072;80;27430;-78
2022/09/12 05:18:58;;;;;;;7.92;3.85;;;;;;;10.69;93.32;100376.97;1766269;79;25746;-76
2022/09/12 05:21:26;;;;;;;10.05;3.83;;;;;;;10.70;93.32;100375.44;1758232;81;25727;-77
2022/09/12 05:23:58;;;;;;;6.60;3.62;;;;;;;10.71;93.47;100379.75;1757964;81;25731;-77
2022/09/12 05:26:25;;;;;;;5.60;3.85;;;;;;;10.74;93.51;100375.36;1762779;79;25863;-77
2022/09/12 05:28:52;;;;;;;9.93;4.00;;;;;;;10.76;93.52;100386.71;1761526;80;27442;-77
2022/09/12 05:31:26;;;;;;;5.25;3.33;;;;;;;10.79;93.56;100382.32;1758835;79;25973;-77
2022/09/12 05:33:54;;;;;;;6.40;3.52;;;;;;;10.81;93.54;100387.48;1759382;79;25851;-78
2022/09/12 05:36:25;;;;;;;7.65;3.58;;;;;;;10.81;93.43;100397.69;1752627;81;26271;-77
2022/09/12 05:38:51;;;;;;;5.78;3.70;;;;;;;10.82;93.53;100387.77;1757777;81;25878;-77
2022/09/12 05:41:24;;;;;;;8.03;3.72;;;;;;;10.85;93.58;100387.41;1765432;80;27439;-78
2022/09/12 05:43:55;;;;;;;6.87;3.30;;;;;;;10.86;93.54;100389.87;1745001;81;26454;-77
2022/09/12 05:46:27;;;;;;;5.08;4.10;;;;;;;10.88;93.57;100391.55;1758490;80;25780;-78
2022/09/12 05:48:54;;;;;;;4.85;3.37;;;;;;;10.88;93.70;100391.84;1741536;81;26242;-77
2022/09/12 05:51:25;;;;;;;6.10;3.50;;;;;;;10.92;93.71;100385.61;1765955;80;25818;-78
2022/09/12 05:53:55;;;;;;;5.40;3.52;;;;;;;10.96;93.74;100391.41;1724743;80;28270;-78
2022/09/12 05:56:26;;;;;;;9.73;3.93;;;;;;;10.97;93.77;100381.02;1716971;81;25903;-78
2022/09/12 05:58:56;;;;;;;6.37;3.70;;;;;;;11.03;93.76;100382.91;1745535;80;25991;-77
2022/09/12 06:01:26;;;;;;;4.85;3.10;;;;;;;11.04;93.66;100392.09;1741124;80;26113;-77
2022/09/12 06:03:55;;;;;;;7.03;3.83;;;;;;;11.06;93.55;100387.86;1748955;80;25781;-78
2022/09/12 06:06:24;;;;;;;5.80;3.65;;;;;;;11.07;93.60;100384.17;1726404;81;27469;-78
2022/09/12 06:08:54;;;;;;;9.20;3.47;;;;;;;11.11;93.61;100388.95;1733342;81;25836;-77
2022/09/12 06:11:23;;;;;;;;;;;;;;;11.14;93.67;100387.20;1756263;80;25816;-77
2022/09/12 06:13:50;;;;;;;6.62;3.58;;;;;;;11.19;93.58;100382.09;1755574;80;25820;-78
2022/09/12 06:16:20;;;;;;;6.28;3.22;;;;;;;11.20;93.45;100386.95;1751184;80;25848;-77
2022/09/12 06:18:53;;;;;;;7.60;3.98;;;;;;;11.22;93.33;100388.42;1756414;80;27462;-78
2022/09/12 06:21:23;;;;;;;6.95;3.77;;;;;;;11.24;93.36;100390.90;1756419;80;25747;-78
2022/09/12 06:23:49;;;;;;;3.45;3.15;;;;;;;11.27;93.33;100386.50;1763861;80;25915;-77
2022/09/12 06:26:20;;;;;;;7.22;3.40;;;;;;;11.29;93.29;100390.61;1763556;80;25759;-77
2022/09/12 06:28:46;;;;;;;5.13;3.63;;;;;;;11.32;93.24;100396.09;1757048;80;25799;-78
2022/09/12 06:31:17;;;;;;;6.58;3.17;;;;;;;11.33;93.19;100397.23;1730032;81;27467;-78
2022/09/12 06:33:48;;;;;;;5.22;2.95;;;;;;;11.37;93.06;100406.58;1737038;81;25770;-78
2022/09/12 06:36:18;;;;;;;6.20;3.62;;;;;;;11.39;93.13;100402.34;1744516;80;25776;-77
2022/09/12 06:38:47;;;;;;;8.03;3.80;;;;;;;11.41;93.11;100405.16;1735524;81;26519;-77
2022/09/12 06:41:14;;;;;;;4.95;3.22;;;;;;;11.46;93.19;100416.09;1745021;80;25927;-78
2022/09/12 06:43:41;;;;;;;4.85;3.00;;;;;;;11.51;93.19;100416.34;1759014;80;28233;-78
2022/09/12 06:46:09;;;;;;;7.25;2.98;;;;;;;11.51;93.12;100412.32;1751606;80;25934;-77
2022/09/12 06:48:36;;;;;;;7.30;3.30;;;;;;;11.54;93.10;100419.16;1753057;80;25915;-78
2022/09/12 06:51:08;;;;;;;6.83;3.90;;;;;;;11.57;93.07;100421.42;1754626;80;26434;-78
2022/09/12 06:53:36;;;;;;;4.33;3.12;;;;;;;11.57;92.86;100417.40;1768839;79;25771;-78
2022/09/12 06:56:13;;;;;;;6.10;3.30;;;;;;;11.59;93.01;100415.34;1756875;79;27464;-78
2022/09/12 06:58:41;;;;;;;5.80;3.58;;;;;;;11.60;92.91;100418.36;1771399;79;26551;-78
2022/09/12 07:01:13;;;;;;;6.47;3.80;;;;;;;11.62;92.99;100416.30;1738229;80;25793;-78
2022/09/12 07:03:40;;;;;;;8.00;3.50;;;;;;;11.68;93.17;100417.39;1755727;81;25785;-78
2022/09/12 07:06:13;;;;;;;8.50;3.72;;;;;;;11.71;92.93;100423.20;1752240;79;26394;-78
2022/09/12 07:08:40;;;;;;;5.97;3.17;;;;;;;11.72;92.85;100427.53;1744878;81;27447;-77
2022/09/12 07:11:20;;;;;;;5.75;3.50;;;;;;;11.73;92.70;100422.49;1757773;81;25957;-77
2022/09/12 07:13:51;;;;;;;5.97;3.55;;;;;;;11.76;92.93;100420.73;1756136;81;26510;-78
2022/09/12 07:16:18;;;;;;;8.55;2.72;;;;;;;11.81;93.05;100426.85;1756928;81;25760;-77
2022/09/12 07:18:53;;;;;;;7.25;3.25;;;;;;;11.85;92.84;100428.11;1757597;81;25780;-77
2022/09/12 07:21:20;;;;;;;4.67;2.92;;;;;;;11.87;92.81;100432.25;1755565;81;27455;-77
2022/09/12 07:23:46;;;;;;;7.05;2.92;;;;;;;11.89;92.88;100431.54;1761514;81;25806;-78
2022/09/12 07:26:15;;;;;;;6.92;3.50;;;;;;;11.92;92.74;100435.69;1753045;81;26497;-78
2022/09/12 07:28:42;;;;;;;6.83;3.60;;;;;;;11.94;92.58;100439.83;1758027;81;26188;-78
2022/09/12 07:31:12;;;;;;;5.72;3.00;;;;;;;11.97;92.76;100441.30;1750669;81;25796;-78
2022/09/12 07:33:40;;;;;;;5.65;2.77;;;;;;;11.98;92.65;100439.75;1758883;81;27497;-77
2022/09/12 07:36:10;;;;;;;4.60;2.95;;;;;;;12.02;92.75;100443.69;1758352;81;25927;-77
2022/09/12 07:38:38;;;;;;;6.05;3.00;;;;;;;12.04;92.73;100445.66;1753718;81;25531;-76
2022/09/12 07:41:14;;;;;;;5.95;3.15;;;;;;;12.06;92.54;100450.31;1757093;81;25716;-77
2022/09/12 07:43:41;;;;;;;6.97;3.40;;;;;;;12.10;92.72;100447.53;1755164;79;25883;-78
2022/09/12 07:46:08;;;;;;;6.00;2.42;;;;;;;12.15;92.67;100446.43;1737508;81;28267;-78
2022/09/12 07:48:34;;;;;;;4.53;2.70;;;;;;;12.20;92.65;100452.55;1745931;81;25745;-77
2022/09/12 07:51:04;;;;;;;3.40;2.72;;;;;;;12.23;92.58;100448.94;1748558;81;25791;-78
2022/09/12 07:53:33;;;;;;;6.47;3.10;;;;;;;12.29;92.72;100460.24;1761863;81;25745;-78
2022/09/12 07:56:01;;;;;;;6.17;2.67;;;;;;;12.34;92.68;100459.10;1750249;81;25780;-78
2022/09/12 07:58:29;;;;;;;6.12;3.22;;;;;;;12.38;92.45;100456.32;1761075;80;28240;-78
2022/09/12 08:01:09;;;;;;;7.53;2.90;;;;;;;12.43;92.44;100457.57;1732609;81;25976;-78
2022/09/12 08:03:36;;;;;;;6.53;3.00;;;;;;;12.47;92.35;100465.03;1746661;81;26399;-76
2022/09/12 08:06:09;;;;;;;6.47;3.12;;;;;;;12.49;92.09;100457.59;1742575;82;26165;-77
2022/09/12 08:08:39;;;;;;;4.50;2.50;;;;;;;12.52;91.99;100453.17;1742349;81;26507;-84
2022/09/12 08:11:09;;;;;;;8.95;3.20;;;;;;;12.55;92.10;100460.00;1736972;81;27542;-82
2022/09/12 08:13:38;;;;;;;7.12;3.37;;;;;;;12.60;92.14;100466.41;1740212;81;26496;-78
2022/09/12 08:16:14;;;;;;;6.60;2.90;;;;;;;12.64;92.10;100460.94;1741775;81;25798;-77
2022/09/12 08:18:41;;;;;;;5.58;3.40;;;;;;;12.70;92.32;100462.01;1730854;81;25481;-77
2022/09/12 08:21:12;;;;;;;5.92;2.95;;;;;;;12.76;92.21;100462.02;1750151;81;26253;-77
2022/09/12 08:23:39;;;;;;;5.37;2.65;;;;;;;12.82;92.21;100469.77;1764529;80;27435;-77
2022/09/12 08:26:05;;;;;;;7.80;2.90;;;;;;;12.86;91.98;100462.95;1742606;80;25800;-78
2022/09/12 08:28:34;;;;;;;5.12;2.77;;;;;;;12.91;92.02;100472.59;1745064;80;25762;-77
2022/09/12 08:31:04;;;;;;;5.80;3.10;;;;;;;12.93;91.95;100463.80;1778324;79;25876;-77
2022/09/12 08:33:32;;;;;;;6.50;2.77;;;;;;;12.97;91.97;100464.53;1780044;79;25935;-76
2022/09/12 08:36:14;;;;;;;3.05;2.52;;;;;;;12.99;91.74;100467.84;1772491;79;27480;-76
2022/09/12 08:38:44;;;;;;;5.70;2.62;;;;;;;13.02;91.84;100463.91;1766105;79;26493;-78
2022/09/12 08:41:33;;;;;;;7.85;2.83;;;;;;;13.06;91.81;100461.98;1774567;79;26020;-77
2022/09/12 08:44:44;;;;;;;6.15;3.02;;;;;;;13.10;91.59;100464.58;1774343;79;26095;-79
2022/09/12 08:47:36;;;;;;;7.78;2.90;;;;;;;13.13;91.79;100464.14;1761999;80;26226;-77
2022/09/12 08:50:11;;;;;;;7.17;3.00;;;;;;;13.20;91.91;100456.08;1732823;81;27961;-78
2022/09/12 08:53:01;;;;;;;4.20;2.83;;;;;;;13.26;91.79;100459.28;1763818;80;25921;-77
2022/09/12 08:55:43;;;;;;;4.47;2.80;;;;;;;13.32;91.95;100453.61;1761355;80;26053;-77
2022/09/12 08:58:19;;;;;;;6.47;2.75;;;;;;;13.38;91.72;100458.15;1770230;80;25763;-78
2022/09/12 09:01:22;;;;;;;5.03;2.83;;;;;;;13.42;91.56;100462.91;1767629;80;25882;-75
2022/09/12 09:04:29;;;;;;;3.58;2.98;;;;;;;13.47;91.70;100464.98;1766785;80;27530;-77
2022/09/12 09:07:44;;;;;;;5.90;2.58;;;;;;;13.50;91.45;100460.00;1778232;80;25609;-79
2022/09/12 09:10:49;;;;;;;10.23;3.42;;;;;;;13.54;91.30;100463.08;1748566;80;26117;-78
2022/09/12 09:16:32;;;;;;;4.65;2.67;;;;;;;13.67;91.18;100454.99;1746961;80;25848;-77
2022/09/12 09:19:03;;;;;;;4.97;3.20;;;;;;;13.75;91.23;100460.17;1767014;80;27390;-76
2022/09/12 09:21:43;;;;;;;6.92;2.98;;;;;;;13.85;91.06;100457.86;1776050;80;25810;-83
2022/09/12 09:24:15;;;;;;;8.97;3.00;;;;;;;13.95;91.20;100456.89;1773590;80;25876;-78
2022/09/12 09:27:05;;;;;;;4.72;3.08;;;;;;;14.06;90.95;100459.45;1776844;80;25903;-80
2022/09/12 09:29:40;;;;;;;6.08;3.05;;;;;;;14.15;90.60;100456.83;1760728;80;25735;-81
2022/09/12 09:32:15;;;;;;;9.00;2.92;;;;;;;14.24;89.79;100459.05;1765712;80;27457;-81
2022/09/12 09:34:42;;;;;;;5.25;2.55;;;;;;;14.32;89.68;100460.22;1776835;80;25972;-79
2022/09/12 09:37:23;;;;;;;5.75;3.10;;;;;;;14.40;89.19;100457.78;1754811;80;25801;-79
2022/09/12 09:40:27;;;;;;;4.37;2.62;;;;;;;14.45;89.50;100457.45;1744416;81;25771;-80
2022/09/12 09:43:14;;;;;;;5.37;4.30;;;;;;;14.53;89.42;100461.76;1735508;81;25756;-79
2022/09/12 09:45:40;;;;;;;6.28;2.98;;;;;;;14.56;88.82;100464.84;1735269;81;28438;-79
2022/09/12 09:48:18;;;;;;;5.62;2.62;;;;;;;14.55;88.53;100469.11;1741402;81;25738;-82
2022/09/12 09:50:48;;;;;;;5.65;2.75;;;;;;;14.56;88.25;100478.86;1747743;81;25840;-79
2022/09/12 09:53:25;;;;;;;3.98;2.30;;;;;;;14.49;87.68;100476.71;1739402;81;25792;-78
2022/09/12 09:55:54;;;;;;;4.65;2.72;;;;;;;14.46;87.63;100479.82;1726464;81;26380;-82
2022/09/12 09:58:33;;;;;;;8.00;3.37;;;;;;;14.43;87.19;100481.11;1738089;81;27536;-80
2022/09/12 10:01:16;;;;;;;3.58;2.87;;;;;;;14.42;87.09;100477.25;1732006;81;25893;-81
2022/09/12 10:03:55;;;;;;;3.95;2.65;;;;;;;14.40;87.10;100482.03;1729289;82;25926;-80
2022/09/12 10:06:31;;;;;;;4.83;2.95;;;;;;;14.43;87.30;100487.84;1750505;80;25923;-81
2022/09/12 10:09:15;;;;;;;5.60;3.22;;;;;;;14.46;87.06;100487.91;1755305;80;25891;-76
2022/09/12 10:11:42;;;;;;;5.08;2.85;;;;;;;14.45;86.88;100485.76;1720802;81;27486;-77
2022/09/12 10:14:37;;;;;;;4.30;2.80;;;;;;;14.47;87.05;100492.27;1755611;80;25721;-79
2022/09/12 10:17:30;;;;;;;5.30;2.47;;;;;;;14.48;86.57;100489.35;1754725;80;26320;-78
2022/09/12 10:19:57;;;;;;;4.42;2.55;;;;;;;14.49;86.93;100494.23;1750656;80;25821;-80
2022/09/12 10:22:28;;;;;;;3.60;2.62;;;;;;;14.51;86.92;100497.53;1729797;81;26045;-77
2022/09/12 10:24:58;;;;;;;3.67;2.80;;;;;;;14.53;87.04;100498.98;1741611;80;27441;-80
2022/09/12 10:27:30;;;;;;;3.95;2.83;;;;;;;14.56;86.99;100501.23;1721664;81;25836;-83
2022/09/12 10:30:08;;;;;;;5.58;3.12;;;;;;;14.59;86.88;100503.51;1748304;80;25784;-85
2022/09/12 10:32:41;;;;;;;6.78;2.85;;;;;;;14.60;86.72;100501.13;1721260;81;26398;-84
2022/09/12 10:35:24;;;;;;;6.08;2.67;;;;;;;14.62;86.61;100499.56;1748621;81;25814;-80
2022/09/12 10:37:58;;;;;;;6.90;3.08;;;;;;;14.65;86.26;100507.20;1734454;80;27541;-83
2022/09/12 10:40:31;;;;;;;6.20;3.08;;;;;;;14.66;86.29;100502.96;1735904;81;25983;-81
2022/09/12 10:42:59;;;;;;;3.10;2.45;;;;;;;14.69;86.36;100506.55;1725816;81;25694;-79
2022/09/12 10:45:36;;;;;;;4.67;2.52;;;;;;;14.72;86.24;100503.12;1760008;80;25781;-78
2022/09/12 10:48:31;;;;;;;4.37;2.45;;;;;;;14.75;86.43;100500.84;1710098;81;45595;-81
2022/09/12 10:50:59;;;;;;;5.70;2.50;;;;;;;14.78;86.39;100509.83;1731714;81;27453;-80
2022/09/12 10:53:34;;;;;;;4.75;2.35;;;;;;;14.80;85.80;100506.94;1759363;80;25624;-78
2022/09/12 10:56:17;;;;;;;2.62;2.40;;;;;;;14.83;85.57;100506.48;1752477;80;25771;-78
2022/09/12 10:59:10;;;;;;;4.67;2.27;;;;;;;14.86;85.37;100515.50;1743284;81;25853;-79
2022/09/12 11:01:45;;;;;;;7.15;2.40;;;;;;;14.88;85.49;100515.60;1730964;81;25878;-80
2022/09/12 11:04:45;;;;;;;4.65;2.40;;;;;;;14.91;85.50;100515.15;1729534;81;28402;-80
2022/09/12 11:07:29;;;;;;;4.85;2.92;;;;;;;14.96;85.37;100513.16;1670544;84;25898;-80
2022/09/12 11:10:35;;;;;;;5.62;2.02;;;;;;;15.01;85.35;100516.03;1704297;82;25896;-80
2022/09/12 11:13:24;;;;;;;2.52;1.92;;;;;;;15.03;84.98;100522.88;1723046;81;25825;-81
2022/09/12 11:16:33;;;;;;;4.33;2.08;;;;;;;15.03;84.73;100525.57;1686634;81;26282;-78
2022/09/12 11:19:31;;;;;;;5.67;1.75;;;;;;;15.04;84.46;100525.02;1716174;81;27489;-74
2022/09/12 11:22:32;;;;;;;3.70;1.98;;;;;;;15.07;84.30;100530.00;1729013;81;26162;-77
2022/09/12 11:25:11;;;;;;;;;;;;;;;15.08;84.50;100523.03;1735535;81;26484;-78
2022/09/12 11:27:48;;;;;;;2.40;1.90;;;;;;;15.09;83.54;100526.56;1762627;80;25603;-78
2022/09/12 11:30:17;;;;;;;4.97;2.00;;;;;;;15.04;83.63;100525.86;1755175;80;26437;-77
2022/09/12 11:33:22;;;;;;;3.35;2.05;;;;;;;15.04;83.09;100528.56;1733659;80;27021;-79
2022/09/12 11:35:51;;;;;;;5.25;2.10;;;;;;;15.01;82.56;100532.22;1740548;80;25867;-79
2022/09/12 11:38:46;;;;;;;3.80;1.92;;;;;;;14.98;82.71;100531.30;1761038;80;25856;-80
2022/09/12 11:41:33;;;;;;;5.20;1.75;;;;;;;14.98;82.54;100531.30;1737927;81;25532;-79
2022/09/12 11:44:22;;;;;;;5.78;2.05;;;;;;;14.97;82.53;100533.70;1752695;80;25939;-86
2022/09/12 11:46:49;;;;;;;4.58;1.82;;;;;;;15.00;82.51;100533.25;1749440;80;27453;-81
2022/09/12 11:49:33;;;;;;;2.45;1.90;;;;;;;15.02;82.44;100534.70;1751625;80;25990;-83
2022/09/12 11:52:25;;;;;;;4.47;2.30;;;;;;;15.05;82.15;100534.27;1750435;80;25920;-82
2022/09/12 11:55:17;;;;;;;5.17;1.90;;;;;;;15.06;82.18;100529.16;1759931;80;26605;-79
2022/09/12 11:57:51;;;;;;;4.42;2.00;;;;;;;15.11;82.03;100525.30;1758302;81;25754;-79
2022/09/12 12:00:38;;;;;;;2.05;1.80;;;;;;;15.18;82.14;100522.56;1748229;81;27474;-80
2022/09/12 12:03:32;;;;;;;3.98;1.80;;;;;;;15.25;81.83;100523.31;1756688;81;25836;-78